sensor_id;sensor_type;location;lat;lon;timestamp;pressure;altitude;pressure_sealevel;temperature;humidity
22025;BME280;11176;51.448;6.650;2022-12-05T00:01:12;45682.00;;;-141.29;96.71
22025;BME280;11176;51.448;6.650;2022-12-05T00:03:38;45702.00;;;-141.29;96.82
22025;BME280;11176;51.448;6.650;2022-12-05T00:06:05;45674.03;;;-141.29;96.74
22025;BME280;11176;51.448;6.650;2022-12-05T00:08:32;45698.00;;;-141.29;96.77
22025;BME280;11176;51.448;6.650;2022-12-05T00:10:58;45702.00;;;-141.29;96.32
22025;BME280;11176;51.448;6.650;2022-12-05T00:13:24;45692.00;;;-141.29;96.75
22025;BME280;11176;51.448;6.650;2022-12-05T00:15:51;45698.00;;;-141.29;96.56
22025;BME280;11176;51.448;6.650;2022-12-05T00:18:17;45702.00;;;-141.29;96.76
22025;BME280;11176;51.448;6.650;2022-12-05T00:20:45;45690.00;;;-141.29;96.82
22025;BME280;11176;51.448;6.650;2022-12-05T00:23:12;45706.00;;;-141.29;96.88
22025;BME280;11176;51.448;6.650;2022-12-05T00:25:39;45676.03;;;-141.29;96.89
22025;BME280;11176;51.448;6.650;2022-12-05T00:28:05;45690.00;;;-141.29;96.77
22025;BME280;11176;51.448;6.650;2022-12-05T00:30:32;45678.03;;;-141.29;96.75
22025;BME280;11176;51.448;6.650;2022-12-05T00:32:58;45694.00;;;-141.29;96.54
22025;BME280;11176;51.448;6.650;2022-12-05T00:35:25;45682.00;;;-141.29;96.58
22025;BME280;11176;51.448;6.650;2022-12-05T00:37:51;45702.00;;;-141.29;96.53
22025;BME280;11176;51.448;6.650;2022-12-05T00:40:18;45696.00;;;-141.29;96.44
22025;BME280;11176;51.448;6.650;2022-12-05T00:42:44;45694.00;;;-141.29;96.65
22025;BME280;11176;51.448;6.650;2022-12-05T00:45:17;45698.00;;;-141.29;96.73
22025;BME280;11176;51.448;6.650;2022-12-05T00:47:44;45688.00;;;-141.29;96.83
22025;BME280;11176;51.448;6.650;2022-12-05T00:50:10;45668.03;;;-141.29;96.70
22025;BME280;11176;51.448;6.650;2022-12-05T00:52:37;45686.00;;;-141.29;96.68
22025;BME280;11176;51.448;6.650;2022-12-05T00:55:03;45694.00;;;-141.29;96.87
22025;BME280;11176;51.448;6.650;2022-12-05T00:57:31;45696.00;;;-141.29;96.80
22025;BME280;11176;51.448;6.650;2022-12-05T00:59:57;45686.00;;;-141.29;97.00
22025;BME280;11176;51.448;6.650;2022-12-05T01:02:24;45692.00;;;-141.29;96.69
22025;BME280;11176;51.448;6.650;2022-12-05T01:04:51;45694.00;;;-141.29;96.47
22025;BME280;11176;51.448;6.650;2022-12-05T01:07:17;45692.00;;;-141.29;96.70
22025;BME280;11176;51.448;6.650;2022-12-05T01:09:44;45678.03;;;-141.29;96.44
22025;BME280;11176;51.448;6.650;2022-12-05T01:12:10;45674.03;;;-141.29;96.54
22025;BME280;11176;51.448;6.650;2022-12-05T01:14:37;45666.03;;;-141.29;96.71
22025;BME280;11176;51.448;6.650;2022-12-05T01:17:03;45690.00;;;-141.29;96.71
22025;BME280;11176;51.448;6.650;2022-12-05T01:19:31;45696.00;;;-141.29;96.91
22025;BME280;11176;51.448;6.650;2022-12-05T01:21:58;45694.00;;;-141.29;97.04
22025;BME280;11176;51.448;6.650;2022-12-05T01:24:26;45684.00;;;-141.29;96.86
22025;BME280;11176;51.448;6.650;2022-12-05T01:26:53;45674.03;;;-141.29;96.88
22025;BME280;11176;51.448;6.650;2022-12-05T01:29:21;45718.00;;;-141.29;96.84
22025;BME280;11176;51.448;6.650;2022-12-05T01:31:48;45682.00;;;-141.29;97.00
22025;BME280;11176;51.448;6.650;2022-12-05T01:34:16;45694.00;;;-141.29;96.90
22025;BME280;11176;51.448;6.650;2022-12-05T01:36:43;45692.00;;;-141.29;96.75
22025;BME280;11176;51.448;6.650;2022-12-05T01:39:11;45716.00;;;-141.29;96.90
22025;BME280;11176;51.448;6.650;2022-12-05T01:41:41;45674.03;;;-141.29;96.84
22025;BME280;11176;51.448;6.650;2022-12-05T01:46:43;45666.03;;;-141.29;97.05
22025;BME280;11176;51.448;6.650;2022-12-05T01:49:14;45668.03;;;-141.29;96.90
22025;BME280;11176;51.448;6.650;2022-12-05T01:51:45;45686.00;;;-141.29;97.01
22025;BME280;11176;51.448;6.650;2022-12-05T01:54:14;45686.00;;;-141.29;96.94
22025;BME280;11176;51.448;6.650;2022-12-05T01:56:45;45686.00;;;-141.29;96.88
22025;BME280;11176;51.448;6.650;2022-12-05T01:59:13;45686.00;;;-141.29;96.92
22025;BME280;11176;51.448;6.650;2022-12-05T02:01:40;45680.03;;;-141.29;97.19
22025;BME280;11176;51.448;6.650;2022-12-05T02:04:07;45700.00;;;-141.29;97.26
22025;BME280;11176;51.448;6.650;2022-12-05T02:06:33;45700.00;;;-141.29;97.27
22025;BME280;11176;51.448;6.650;2022-12-05T02:09:00;45694.00;;;-141.29;97.34
22025;BME280;11176;51.448;6.650;2022-12-05T02:11:28;45690.00;;;-141.29;97.25
22025;BME280;11176;51.448;6.650;2022-12-05T02:22:11;45686.00;;;-141.29;97.38
22025;BME280;11176;51.448;6.650;2022-12-05T02:24:54;45702.00;;;-141.29;97.33
22025;BME280;11176;51.448;6.650;2022-12-05T02:28:04;45702.00;;;-141.29;97.42
22025;BME280;11176;51.448;6.650;2022-12-05T02:30:42;45694.00;;;-141.29;97.48
22025;BME280;11176;51.448;6.650;2022-12-05T02:33:19;45694.00;;;-141.29;97.25
22025;BME280;11176;51.448;6.650;2022-12-05T02:36:04;45688.00;;;-141.29;97.39
22025;BME280;11176;51.448;6.650;2022-12-05T02:41:35;45690.00;;;-141.29;97.48
22025;BME280;11176;51.448;6.650;2022-12-05T02:46:45;45698.00;;;-141.29;97.74
22025;BME280;11176;51.448;6.650;2022-12-05T02:49:18;45690.00;;;-141.29;97.74
22025;BME280;11176;51.448;6.650;2022-12-05T02:51:49;45704.00;;;-141.29;97.93
22025;BME280;11176;51.448;6.650;2022-12-05T02:54:21;45690.00;;;-141.29;97.88
22025;BME280;11176;51.448;6.650;2022-12-05T02:56:51;45686.00;;;-141.29;97.74
22025;BME280;11176;51.448;6.650;2022-12-05T02:59:18;45674.03;;;-141.29;97.88
22025;BME280;11176;51.448;6.650;2022-12-05T03:01:49;45674.03;;;-141.29;97.81
22025;BME280;11176;51.448;6.650;2022-12-05T03:04:17;45698.00;;;-141.29;97.99
22025;BME280;11176;51.448;6.650;2022-12-05T03:06:52;45690.00;;;-141.29;98.04
22025;BME280;11176;51.448;6.650;2022-12-05T03:09:32;45706.00;;;-141.29;97.96
22025;BME280;11176;51.448;6.650;2022-12-05T03:12:09;45700.00;;;-141.29;97.95
22025;BME280;11176;51.448;6.650;2022-12-05T03:14:43;45688.00;;;-141.29;97.83
22025;BME280;11176;51.448;6.650;2022-12-05T03:17:12;45698.00;;;-141.29;97.93
22025;BME280;11176;51.448;6.650;2022-12-05T03:19:49;45676.03;;;-141.29;97.83
22025;BME280;11176;51.448;6.650;2022-12-05T03:23:10;45702.00;;;-141.29;97.60
22025;BME280;11176;51.448;6.650;2022-12-05T03:25:10;45678.03;;;-141.29;97.63
22025;BME280;11176;51.448;6.650;2022-12-05T03:30:18;45686.00;;;-141.29;97.29
22025;BME280;11176;51.448;6.650;2022-12-05T03:33:06;45694.00;;;-141.29;97.44
22025;BME280;11176;51.448;6.650;2022-12-05T03:35:56;45694.00;;;-141.29;97.50
22025;BME280;11176;51.448;6.650;2022-12-05T03:38:31;45704.00;;;-141.29;97.36
22025;BME280;11176;51.448;6.650;2022-12-05T03:42:06;45696.00;;;-141.29;97.44
22025;BME280;11176;51.448;6.650;2022-12-05T03:44:51;45674.03;;;-141.29;97.88
22025;BME280;11176;51.448;6.650;2022-12-05T03:47:48;45712.00;;;-141.29;98.24
22025;BME280;11176;51.448;6.650;2022-12-05T03:50:27;45686.00;;;-141.29;98.60
22025;BME280;11176;51.448;6.650;2022-12-05T03:53:08;45678.03;;;-141.29;98.81
22025;BME280;11176;51.448;6.650;2022-12-05T03:55:50;45694.00;;;-141.29;99.47
22025;BME280;11176;51.448;6.650;2022-12-05T03:58:30;45680.03;;;-141.29;99.67
22025;BME280;11176;51.448;6.650;2022-12-05T04:01:00;45678.03;;;-141.29;100.00
22025;BME280;11176;51.448;6.650;2022-12-05T04:03:35;45698.00;;;-141.29;100.00
22025;BME280;11176;51.448;6.650;2022-12-05T04:06:13;45678.03;;;-141.29;100.00
22025;BME280;11176;51.448;6.650;2022-12-05T04:08:47;45702.00;;;-141.29;100.00
22025;BME280;11176;51.448;6.650;2022-12-05T04:11:20;45688.00;;;-141.29;100.00
22025;BME280;11176;51.448;6.650;2022-12-05T04:13:53;45700.00;;;-141.29;100.00
22025;BME280;11176;51.448;6.650;2022-12-05T04:16:42;45702.00;;;-141.29;100.00
22025;BME280;11176;51.448;6.650;2022-12-05T04:19:59;45684.00;;;-141.29;100.00
22025;BME280;11176;51.448;6.650;2022-12-05T04:23:01;45678.03;;;-141.29;100.00
22025;BME280;11176;51.448;6.650;2022-12-05T04:25:35;45678.03;;;-141.29;100.00
22025;BME280;11176;51.448;6.650;2022-12-05T04:28:27;45714.00;;;-141.29;100.00
22025;BME280;11176;51.448;6.650;2022-12-05T04:31:14;45694.00;;;-141.29;100.00
22025;BME280;11176;51.448;6.650;2022-12-05T04:33:48;45678.03;;;-141.29;100.00
22025;BME280;11176;51.448;6.650;2022-12-05T04:36:24;45700.00;;;-141.29;100.00
22025;BME280;11176;51.448;6.650;2022-12-05T04:39:05;45678.03;;;-141.29;100.00
22025;BME280;11176;51.448;6.650;2022-12-05T04:41:50;45698.00;;;-141.29;100.00
22025;BME280;11176;51.448;6.650;2022-12-05T04:44:28;45698.00;;;-141.29;100.00
22025;BME280;11176;51.448;6.650;2022-12-05T04:46:59;45686.00;;;-141.29;100.00
22025;BME280;11176;51.448;6.650;2022-12-05T04:49:28;45694.00;;;-141.29;100.00
22025;BME280;11176;51.448;6.650;2022-12-05T04:51:58;45686.00;;;-141.29;100.00
22025;BME280;11176;51.448;6.650;2022-12-05T04:57:22;45698.00;;;-141.29;100.00
22025;BME280;11176;51.448;6.650;2022-12-05T04:59:49;45714.00;;;-141.29;100.00
22025;BME280;11176;51.448;6.650;2022-12-05T05:02:19;45692.00;;;-141.29;100.00
22025;BME280;11176;51.448;6.650;2022-12-05T05:04:48;45682.00;;;-141.29;100.00
22025;BME280;11176;51.448;6.650;2022-12-05T05:07:17;45706.00;;;-141.29;100.00
22025;BME280;11176;51.448;6.650;2022-12-05T05:09:43;45704.00;;;-141.29;100.00
22025;BME280;11176;51.448;6.650;2022-12-05T05:12:10;45698.00;;;-141.29;100.00
22025;BME280;11176;51.448;6.650;2022-12-05T05:14:44;45688.00;;;-141.29;100.00
22025;BME280;11176;51.448;6.650;2022-12-05T05:17:10;45698.00;;;-141.29;100.00
22025;BME280;11176;51.448;6.650;2022-12-05T05:19:37;45690.00;;;-141.29;100.00
22025;BME280;11176;51.448;6.650;2022-12-05T05:22:04;45666.03;;;-141.29;100.00
22025;BME280;11176;51.448;6.650;2022-12-05T05:24:30;45686.00;;;-141.29;100.00
22025;BME280;11176;51.448;6.650;2022-12-05T05:26:57;45702.00;;;-141.29;100.00
22025;BME280;11176;51.448;6.650;2022-12-05T05:29:23;45706.00;;;-141.29;100.00
22025;BME280;11176;51.448;6.650;2022-12-05T05:31:50;45690.00;;;-141.29;100.00
22025;BME280;11176;51.448;6.650;2022-12-05T05:34:16;45714.00;;;-141.29;100.00
22025;BME280;11176;51.448;6.650;2022-12-05T05:36:43;45718.00;;;-141.29;100.00
22025;BME280;11176;51.448;6.650;2022-12-05T05:39:13;45698.00;;;-141.29;100.00
22025;BME280;11176;51.448;6.650;2022-12-05T05:41:41;45710.00;;;-141.29;100.00
22025;BME280;11176;51.448;6.650;2022-12-05T05:44:08;45698.00;;;-141.29;100.00
22025;BME280;11176;51.448;6.650;2022-12-05T05:46:35;45678.03;;;-141.29;100.00
22025;BME280;11176;51.448;6.650;2022-12-05T05:49:02;45700.00;;;-141.29;100.00
22025;BME280;11176;51.448;6.650;2022-12-05T05:51:29;45706.00;;;-141.29;100.00
22025;BME280;11176;51.448;6.650;2022-12-05T05:53:57;45686.00;;;-141.29;100.00
22025;BME280;11176;51.448;6.650;2022-12-05T05:56:24;45710.00;;;-141.29;100.00
22025;BME280;11176;51.448;6.650;2022-12-05T05:59:08;45700.00;;;-141.29;100.00
22025;BME280;11176;51.448;6.650;2022-12-05T06:01:35;45698.00;;;-141.29;100.00
22025;BME280;11176;51.448;6.650;2022-12-05T06:04:01;45682.00;;;-141.29;100.00
22025;BME280;11176;51.448;6.650;2022-12-05T06:06:28;45725.97;;;-141.29;100.00
22025;BME280;11176;51.448;6.650;2022-12-05T06:08:55;45694.00;;;-141.29;100.00
22025;BME280;11176;51.448;6.650;2022-12-05T06:11:24;45698.00;;;-141.29;100.00
22025;BME280;11176;51.448;6.650;2022-12-05T06:13:54;45690.00;;;-141.29;100.00
22025;BME280;11176;51.448;6.650;2022-12-05T06:16:21;45696.00;;;-141.29;100.00
22025;BME280;11176;51.448;6.650;2022-12-05T06:18:48;45696.00;;;-141.29;100.00
22025;BME280;11176;51.448;6.650;2022-12-05T06:21:15;45690.00;;;-141.29;100.00
22025;BME280;11176;51.448;6.650;2022-12-05T06:23:42;45698.00;;;-141.29;100.00
22025;BME280;11176;51.448;6.650;2022-12-05T06:26:11;45702.00;;;-141.29;100.00
22025;BME280;11176;51.448;6.650;2022-12-05T06:28:38;45702.00;;;-141.29;100.00
22025;BME280;11176;51.448;6.650;2022-12-05T06:31:07;45690.00;;;-141.29;100.00
22025;BME280;11176;51.448;6.650;2022-12-05T06:33:33;45710.00;;;-141.29;100.00
22025;BME280;11176;51.448;6.650;2022-12-05T06:36:02;45708.00;;;-141.29;100.00
22025;BME280;11176;51.448;6.650;2022-12-05T06:38:29;45692.00;;;-141.29;100.00
22025;BME280;11176;51.448;6.650;2022-12-05T06:40:55;45724.00;;;-141.29;100.00
22025;BME280;11176;51.448;6.650;2022-12-05T06:43:22;45674.03;;;-141.29;100.00
22025;BME280;11176;51.448;6.650;2022-12-05T06:45:48;45688.00;;;-141.29;100.00
22025;BME280;11176;51.448;6.650;2022-12-05T06:48:15;45698.00;;;-141.29;100.00
22025;BME280;11176;51.448;6.650;2022-12-05T06:50:51;45692.00;;;-141.29;100.00
22025;BME280;11176;51.448;6.650;2022-12-05T06:53:18;45712.00;;;-141.29;100.00
22025;BME280;11176;51.448;6.650;2022-12-05T06:55:59;45702.00;;;-141.29;100.00
22025;BME280;11176;51.448;6.650;2022-12-05T06:58:27;45696.00;;;-141.29;100.00
22025;BME280;11176;51.448;6.650;2022-12-05T07:00:54;45708.00;;;-141.29;100.00
22025;BME280;11176;51.448;6.650;2022-12-05T07:03:40;45706.00;;;-141.29;100.00
22025;BME280;11176;51.448;6.650;2022-12-05T07:06:09;45706.00;;;-141.29;100.00
22025;BME280;11176;51.448;6.650;2022-12-05T07:08:35;45696.00;;;-141.29;100.00
22025;BME280;11176;51.448;6.650;2022-12-05T07:11:02;45702.00;;;-141.29;100.00
22025;BME280;11176;51.448;6.650;2022-12-05T07:13:29;45702.00;;;-141.29;100.00
22025;BME280;11176;51.448;6.650;2022-12-05T07:15:56;45712.00;;;-141.29;100.00
22025;BME280;11176;51.448;6.650;2022-12-05T07:18:25;45698.00;;;-141.29;100.00
22025;BME280;11176;51.448;6.650;2022-12-05T07:20:56;45706.00;;;-141.29;100.00
22025;BME280;11176;51.448;6.650;2022-12-05T07:23:40;45706.00;;;-141.29;100.00
22025;BME280;11176;51.448;6.650;2022-12-05T07:26:09;45714.00;;;-141.29;100.00
22025;BME280;11176;51.448;6.650;2022-12-05T07:28:36;45710.00;;;-141.29;100.00
22025;BME280;11176;51.448;6.650;2022-12-05T07:31:05;45702.00;;;-141.29;100.00
22025;BME280;11176;51.448;6.650;2022-12-05T07:33:31;45702.00;;;-141.29;100.00
22025;BME280;11176;51.448;6.650;2022-12-05T07:36:00;45710.00;;;-141.29;100.00
22025;BME280;11176;51.448;6.650;2022-12-05T07:38:27;45704.00;;;-141.29;100.00
22025;BME280;11176;51.448;6.650;2022-12-05T07:40:54;45698.00;;;-141.29;100.00
22025;BME280;11176;51.448;6.650;2022-12-05T07:43:20;45698.00;;;-141.29;100.00
22025;BME280;11176;51.448;6.650;2022-12-05T07:45:46;45710.00;;;-141.29;100.00
22025;BME280;11176;51.448;6.650;2022-12-05T07:48:13;45666.03;;;-141.29;100.00
22025;BME280;11176;51.448;6.650;2022-12-05T07:50:44;45706.00;;;-141.29;100.00
22025;BME280;11176;51.448;6.650;2022-12-05T07:53:11;45682.00;;;-141.29;100.00
22025;BME280;11176;51.448;6.650;2022-12-05T07:55:37;45686.00;;;-141.29;100.00
22025;BME280;11176;51.448;6.650;2022-12-05T07:58:05;45688.00;;;-141.29;100.00
22025;BME280;11176;51.448;6.650;2022-12-05T08:00:31;45698.00;;;-141.29;100.00
22025;BME280;11176;51.448;6.650;2022-12-05T08:02:57;45702.00;;;-141.29;100.00
22025;BME280;11176;51.448;6.650;2022-12-05T08:05:24;45692.00;;;-141.29;100.00
22025;BME280;11176;51.448;6.650;2022-12-05T08:07:50;45710.00;;;-141.29;100.00
22025;BME280;11176;51.448;6.650;2022-12-05T08:10:17;45702.00;;;-141.29;100.00
22025;BME280;11176;51.448;6.650;2022-12-05T08:12:43;45686.00;;;-141.29;100.00
22025;BME280;11176;51.448;6.650;2022-12-05T08:15:10;45700.00;;;-141.29;100.00
22025;BME280;11176;51.448;6.650;2022-12-05T08:17:36;45708.00;;;-141.29;100.00
22025;BME280;11176;51.448;6.650;2022-12-05T08:20:03;45712.00;;;-141.29;100.00
22025;BME280;11176;51.448;6.650;2022-12-05T08:22:30;45712.00;;;-141.29;100.00
22025;BME280;11176;51.448;6.650;2022-12-05T08:24:56;45727.97;;;-141.29;100.00
22025;BME280;11176;51.448;6.650;2022-12-05T08:27:23;45714.00;;;-141.29;100.00
22025;BME280;11176;51.448;6.650;2022-12-05T08:29:49;45714.00;;;-141.29;100.00
22025;BME280;11176;51.448;6.650;2022-12-05T08:32:16;45727.97;;;-141.29;100.00
22025;BME280;11176;51.448;6.650;2022-12-05T08:34:42;45729.97;;;-141.29;100.00
22025;BME280;11176;51.448;6.650;2022-12-05T08:37:09;45729.97;;;-141.29;100.00
22025;BME280;11176;51.448;6.650;2022-12-05T08:39:35;45729.97;;;-141.29;100.00
22025;BME280;11176;51.448;6.650;2022-12-05T08:42:04;45716.00;;;-141.29;100.00
22025;BME280;11176;51.448;6.650;2022-12-05T08:44:31;45731.97;;;-141.29;100.00
22025;BME280;11176;51.448;6.650;2022-12-05T08:46:57;45702.00;;;-141.29;100.00
22025;BME280;11176;51.448;6.650;2022-12-05T08:49:24;45737.97;;;-141.29;100.00
22025;BME280;11176;51.448;6.650;2022-12-05T08:51:50;45718.00;;;-141.29;100.00
22025;BME280;11176;51.448;6.650;2022-12-05T08:54:17;45714.00;;;-141.29;100.00
22025;BME280;11176;51.448;6.650;2022-12-05T08:56:43;45724.00;;;-141.29;100.00
22025;BME280;11176;51.448;6.650;2022-12-05T08:59:10;45722.00;;;-141.29;100.00
22025;BME280;11176;51.448;6.650;2022-12-05T09:01:36;45712.00;;;-141.29;100.00
22025;BME280;11176;51.448;6.650;2022-12-05T09:04:05;45716.00;;;-141.29;100.00
22025;BME280;11176;51.448;6.650;2022-12-05T09:06:32;45712.00;;;-141.29;100.00
22025;BME280;11176;51.448;6.650;2022-12-05T09:09:02;45712.00;;;-141.29;100.00
22025;BME280;11176;51.448;6.650;2022-12-05T09:11:34;45733.97;;;-141.29;100.00
22025;BME280;11176;51.448;6.650;2022-12-05T09:14:02;45725.97;;;-141.29;100.00
22025;BME280;11176;51.448;6.650;2022-12-05T09:16:32;45725.97;;;-141.29;100.00
22025;BME280;11176;51.448;6.650;2022-12-05T09:19:08;45718.00;;;-141.29;100.00
22025;BME280;11176;51.448;6.650;2022-12-05T09:21:36;45724.00;;;-141.29;100.00
22025;BME280;11176;51.448;6.650;2022-12-05T09:24:02;45745.97;;;-141.29;100.00
22025;BME280;11176;51.448;6.650;2022-12-05T09:26:29;45729.97;;;-141.29;100.00
22025;BME280;11176;51.448;6.650;2022-12-05T09:28:56;45737.97;;;-141.29;100.00
22025;BME280;11176;51.448;6.650;2022-12-05T09:31:24;45722.00;;;-141.29;100.00
22025;BME280;11176;51.448;6.650;2022-12-05T09:33:53;45725.97;;;-141.29;100.00
22025;BME280;11176;51.448;6.650;2022-12-05T09:36:22;45722.00;;;-141.29;100.00
22025;BME280;11176;51.448;6.650;2022-12-05T09:38:50;45722.00;;;-141.29;100.00
22025;BME280;11176;51.448;6.650;2022-12-05T09:41:55;45749.97;;;-141.29;100.00
22025;BME280;11176;51.448;6.650;2022-12-05T09:48:09;45725.97;;;-141.29;100.00
22025;BME280;11176;51.448;6.650;2022-12-05T09:50:45;45718.00;;;-141.29;100.00
22025;BME280;11176;51.448;6.650;2022-12-05T09:53:25;45724.00;;;-141.29;100.00
22025;BME280;11176;51.448;6.650;2022-12-05T09:55:59;45712.00;;;-141.29;100.00
22025;BME280;11176;51.448;6.650;2022-12-05T09:58:29;45714.00;;;-141.29;100.00
22025;BME280;11176;51.448;6.650;2022-12-05T10:11:57;45722.00;;;-141.29;100.00
22025;BME280;11176;51.448;6.650;2022-12-05T10:19:51;45722.00;;;-141.29;100.00
22025;BME280;11176;51.448;6.650;2022-12-05T10:22:25;45725.97;;;-141.29;100.00
22025;BME280;11176;51.448;6.650;2022-12-05T10:24:58;45725.97;;;-141.29;100.00
22025;BME280;11176;51.448;6.650;2022-12-05T10:27:34;45725.97;;;-141.29;100.00
22025;BME280;11176;51.448;6.650;2022-12-05T10:32:53;45724.00;;;-141.29;100.00
22025;BME280;11176;51.448;6.650;2022-12-05T10:35:26;45722.00;;;-141.29;100.00
22025;BME280;11176;51.448;6.650;2022-12-05T10:37:56;45722.00;;;-141.29;100.00
22025;BME280;11176;51.448;6.650;2022-12-05T10:40:26;45729.97;;;-141.29;100.00
22025;BME280;11176;51.448;6.650;2022-12-05T10:42:57;45720.00;;;-141.29;100.00
22025;BME280;11176;51.448;6.650;2022-12-05T10:45:24;45722.00;;;-141.29;100.00
22025;BME280;11176;51.448;6.650;2022-12-05T10:47:55;45725.97;;;-141.29;100.00
22025;BME280;11176;51.448;6.650;2022-12-05T10:50:31;45700.00;;;-141.29;100.00
22025;BME280;11176;51.448;6.650;2022-12-05T10:53:00;45735.97;;;-141.29;100.00
22025;BME280;11176;51.448;6.650;2022-12-05T10:55:35;45729.97;;;-141.29;100.00
22025;BME280;11176;51.448;6.650;2022-12-05T10:58:20;45718.00;;;-141.29;100.00
22025;BME280;11176;51.448;6.650;2022-12-05T11:00:52;45722.00;;;-141.29;100.00
22025;BME280;11176;51.448;6.650;2022-12-05T11:03:26;45729.97;;;-141.29;100.00
22025;BME280;11176;51.448;6.650;2022-12-05T11:05:55;45698.00;;;-141.29;100.00
22025;BME280;11176;51.448;6.650;2022-12-05T11:08:24;45714.00;;;-141.29;100.00
22025;BME280;11176;51.448;6.650;2022-12-05T11:13:57;45702.00;;;-141.29;100.00
22025;BME280;11176;51.448;6.650;2022-12-05T11:16:36;45702.00;;;-141.29;100.00
22025;BME280;11176;51.448;6.650;2022-12-05T11:19:24;45729.97;;;-141.29;100.00
22025;BME280;11176;51.448;6.650;2022-12-05T11:21:52;45731.97;;;-141.29;100.00
22025;BME280;11176;51.448;6.650;2022-12-05T11:26:52;45722.00;;;-141.29;100.00
22025;BME280;11176;51.448;6.650;2022-12-05T11:29:36;45733.97;;;-141.29;100.00
22025;BME280;11176;51.448;6.650;2022-12-05T11:32:08;45741.97;;;-141.29;100.00
22025;BME280;11176;51.448;6.650;2022-12-05T11:34:48;45733.97;;;-141.29;100.00
22025;BME280;11176;51.448;6.650;2022-12-05T11:37:22;45710.00;;;-141.29;100.00
22025;BME280;11176;51.448;6.650;2022-12-05T11:39:50;45729.97;;;-141.29;100.00
22025;BME280;11176;51.448;6.650;2022-12-05T11:44:59;45727.97;;;-141.29;100.00
22025;BME280;11176;51.448;6.650;2022-12-05T11:47:49;45731.97;;;-141.29;100.00
22025;BME280;11176;51.448;6.650;2022-12-05T11:56:37;45735.97;;;-141.29;100.00
22025;BME280;11176;51.448;6.650;2022-12-05T11:59:15;45724.00;;;-141.29;100.00
22025;BME280;11176;51.448;6.650;2022-12-05T12:04:48;45725.97;;;-141.29;100.00
22025;BME280;11176;51.448;6.650;2022-12-05T12:18:33;45729.97;;;-141.29;100.00
22025;BME280;11176;51.448;6.650;2022-12-05T12:23:57;45727.97;;;-141.29;100.00
22025;BME280;11176;51.448;6.650;2022-12-05T12:29:14;45733.97;;;-141.29;100.00
22025;BME280;11176;51.448;6.650;2022-12-05T12:34:46;45747.97;;;-141.29;100.00
22025;BME280;11176;51.448;6.650;2022-12-05T12:40:06;45727.97;;;-141.29;100.00
22025;BME280;11176;51.448;6.650;2022-12-05T12:45:43;45725.97;;;-141.29;100.00
22025;BME280;11176;51.448;6.650;2022-12-05T12:50:50;45739.97;;;-141.29;100.00
22025;BME280;11176;51.448;6.650;2022-12-05T12:59:25;45741.97;;;-141.29;100.00
22025;BME280;11176;51.448;6.650;2022-12-05T13:02:00;45739.97;;;-141.29;100.00
22025;BME280;11176;51.448;6.650;2022-12-05T13:04:33;45720.00;;;-141.29;100.00
22025;BME280;11176;51.448;6.650;2022-12-05T13:07:10;45749.97;;;-141.29;100.00
22025;BME280;11176;51.448;6.650;2022-12-05T13:09:42;45751.97;;;-141.29;100.00
22025;BME280;11176;51.448;6.650;2022-12-05T13:12:21;45729.97;;;-141.29;100.00
22025;BME280;11176;51.448;6.650;2022-12-05T13:14:57;45722.00;;;-141.29;100.00
22025;BME280;11176;51.448;6.650;2022-12-05T13:17:27;45725.97;;;-141.29;100.00
22025;BME280;11176;51.448;6.650;2022-12-05T13:19:54;45737.97;;;-141.29;100.00
22025;BME280;11176;51.448;6.650;2022-12-05T13:22:24;45749.97;;;-141.29;100.00
22025;BME280;11176;51.448;6.650;2022-12-05T13:24:53;45725.97;;;-141.29;100.00
22025;BME280;11176;51.448;6.650;2022-12-05T13:27:25;45712.00;;;-141.29;100.00
22025;BME280;11176;51.448;6.650;2022-12-05T13:29:57;45741.97;;;-141.29;100.00
22025;BME280;11176;51.448;6.650;2022-12-05T13:35:18;45745.97;;;-141.29;100.00
22025;BME280;11176;51.448;6.650;2022-12-05T13:38:04;45733.97;;;-141.29;100.00
22025;BME280;11176;51.448;6.650;2022-12-05T13:40:51;45718.00;;;-141.29;100.00
22025;BME280;11176;51.448;6.650;2022-12-05T13:43:41;45731.97;;;-141.29;100.00
22025;BME280;11176;51.448;6.650;2022-12-05T13:46:28;45725.97;;;-141.29;100.00
22025;BME280;11176;51.448;6.650;2022-12-05T13:49:06;45737.97;;;-141.29;100.00
22025;BME280;11176;51.448;6.650;2022-12-05T13:51:43;45720.00;;;-141.29;100.00
22025;BME280;11176;51.448;6.650;2022-12-05T13:54:23;45745.97;;;-141.29;100.00
22025;BME280;11176;51.448;6.650;2022-12-05T13:56:56;45753.97;;;-141.29;100.00
22025;BME280;11176;51.448;6.650;2022-12-05T14:07:48;45753.97;;;-141.29;100.00
22025;BME280;11176;51.448;6.650;2022-12-05T14:13:37;45745.97;;;-141.29;100.00
22025;BME280;11176;51.448;6.650;2022-12-05T14:21:44;45729.97;;;-141.29;100.00
22025;BME280;11176;51.448;6.650;2022-12-05T14:24:37;45733.97;;;-141.29;100.00
22025;BME280;11176;51.448;6.650;2022-12-05T14:32:33;45757.97;;;-141.29;100.00
22025;BME280;11176;51.448;6.650;2022-12-05T14:35:30;45733.97;;;-141.29;100.00
22025;BME280;11176;51.448;6.650;2022-12-05T14:38:03;45761.97;;;-141.29;100.00
22025;BME280;11176;51.448;6.650;2022-12-05T14:40:37;45747.97;;;-141.29;100.00
22025;BME280;11176;51.448;6.650;2022-12-05T14:43:32;45745.97;;;-141.29;100.00
22025;BME280;11176;51.448;6.650;2022-12-05T14:46:02;45745.97;;;-141.29;100.00
22025;BME280;11176;51.448;6.650;2022-12-05T14:48:34;45743.97;;;-141.29;100.00
22025;BME280;11176;51.448;6.650;2022-12-05T14:53:54;45749.97;;;-141.29;100.00
22025;BME280;11176;51.448;6.650;2022-12-05T14:56:26;45747.97;;;-141.29;100.00
22025;BME280;11176;51.448;6.650;2022-12-05T15:01:50;45757.97;;;-141.29;100.00
22025;BME280;11176;51.448;6.650;2022-12-05T15:04:30;45749.97;;;-141.29;100.00